createdAt,value
2022-10-22T00:06:44.995Z,11.43
2022-10-22T00:16:49.116Z,11.34
2022-10-22T00:26:52.152Z,11.27
2022-10-22T00:36:56.636Z,11.16
2022-10-22T00:46:59.368Z,11.26
2022-10-22T00:57:03.513Z,11.41
2022-10-22T01:07:06.328Z,11.42
2022-10-22T01:17:13.888Z,11.53
2022-10-22T01:27:21.973Z,11.66
2022-10-22T01:37:27.130Z,11.68
2022-10-22T01:47:38.087Z,11.67
2022-10-22T01:57:44.994Z,11.67
2022-10-22T02:07:50.467Z,11.59
2022-10-22T02:17:56.389Z,11.52
2022-10-22T02:28:03.809Z,11.47
2022-10-22T02:38:08.928Z,11.53
2022-10-22T02:48:11.724Z,11.57
2022-10-22T02:58:15.834Z,11.52
2022-10-22T03:08:18.554Z,11.49
2022-10-22T03:18:22.603Z,11.49
2022-10-22T03:28:26.958Z,11.58
2022-10-22T03:38:31.930Z,11.62
2022-10-22T03:48:34.774Z,11.64
2022-10-22T03:58:39.055Z,11.67
2022-10-22T04:08:42.795Z,11.68
2022-10-22T04:18:47.470Z,11.73
2022-10-22T04:28:51.328Z,11.76
2022-10-22T04:38:56.262Z,11.84
2022-10-22T04:48:59.257Z,11.93
2022-10-22T04:59:04.400Z,11.98
2022-10-22T05:09:08.291Z,12.10
2022-10-22T05:19:17.055Z,12.27
2022-10-22T05:29:20.284Z,12.42
2022-10-22T05:39:24.332Z,12.45
2022-10-22T05:49:27.266Z,12.36
2022-10-22T05:59:31.449Z,12.34
2022-10-22T06:19:44.798Z,12.18
2022-10-22T06:29:47.510Z,12.26
2022-10-22T06:39:51.812Z,12.22
2022-10-22T06:49:54.609Z,12.16
2022-10-22T06:59:58.850Z,12.13
2022-10-22T07:10:01.726Z,12.11
2022-10-22T07:20:06.531Z,12.35
2022-10-22T07:30:11.090Z,12.45
2022-10-22T07:40:15.481Z,12.59
2022-10-22T07:50:18.807Z,12.78
2022-10-22T08:00:25.247Z,12.96
2022-10-22T08:10:28.449Z,13.12
2022-10-22T08:20:33.038Z,13.44
2022-10-22T08:30:38.046Z,13.73
2022-10-22T08:40:42.437Z,14.30
2022-10-22T08:50:47.382Z,14.81
2022-10-22T09:00:56.829Z,15.13
2022-10-22T09:11:02.998Z,15.27
2022-10-22T09:21:16.342Z,15.27
2022-10-22T09:31:19.191Z,15.22
2022-10-22T09:41:25.477Z,15.27
2022-10-22T09:51:37.332Z,15.51
2022-10-22T10:01:42.087Z,15.60
2022-10-22T10:11:47.283Z,15.71
2022-10-22T10:21:57.280Z,15.73
2022-10-22T10:32:05.867Z,15.88
2022-10-22T10:42:16.764Z,16.13
2022-10-22T10:52:23.226Z,16.06
2022-10-22T11:02:41.544Z,16.31
2022-10-22T11:12:48.922Z,16.30
2022-10-22T11:23:18.038Z,16.40
2022-10-22T11:33:20.955Z,16.75
2022-10-22T11:43:29.453Z,17.48
2022-10-22T11:53:33.402Z,17.46
2022-10-22T12:03:42.512Z,17.75
2022-10-22T12:14:00.262Z,17.79
2022-10-22T12:24:05.033Z,17.65
2022-10-22T12:34:07.955Z,17.43
2022-10-22T12:44:14.027Z,17.68
2022-10-22T12:54:22.567Z,17.75
2022-10-22T13:04:36.651Z,17.99
2022-10-22T13:14:39.733Z,18.08
2022-10-22T13:24:49.978Z,17.77
2022-10-22T13:34:52.877Z,17.55
2022-10-22T13:44:57.101Z,17.52
2022-10-22T13:55:00.123Z,17.47
2022-10-22T14:05:06.567Z,17.40
2022-10-22T14:15:10.325Z,17.30
2022-10-22T14:25:15.501Z,17.36
2022-10-22T14:35:19.467Z,17.41
2022-10-22T14:45:25.225Z,17.37
2022-10-22T14:55:29.239Z,17.27
2022-10-22T15:05:33.498Z,17.13
2022-10-22T15:15:39.457Z,16.85
2022-10-22T15:25:46.065Z,16.56
2022-10-22T15:35:48.830Z,16.27
2022-10-22T15:46:04.006Z,15.95
2022-10-22T15:56:07.166Z,15.63
2022-10-22T16:06:11.389Z,15.30
2022-10-22T16:16:14.308Z,14.95
2022-10-22T16:26:18.926Z,14.56
2022-10-22T16:36:22.141Z,14.22
2022-10-22T16:46:26.226Z,13.96
2022-10-22T16:56:29.099Z,13.65
2022-10-22T17:06:33.247Z,13.42
2022-10-22T17:16:36.124Z,13.17
2022-10-22T17:26:40.363Z,12.93
2022-10-22T17:36:43.254Z,12.74
2022-10-22T17:46:49.762Z,12.60
2022-10-22T17:56:52.719Z,12.42
2022-10-22T18:06:57.165Z,12.28
2022-10-22T18:17:02.506Z,12.18
2022-10-22T18:27:06.859Z,12.01
2022-10-22T18:37:10.015Z,11.89
2022-10-22T18:47:14.172Z,11.84
2022-10-22T18:57:17.105Z,11.78
2022-10-22T19:07:21.375Z,11.77
2022-10-22T19:17:24.121Z,11.76
2022-10-22T19:27:28.485Z,11.71
2022-10-22T19:37:31.387Z,11.66
2022-10-22T19:47:35.546Z,11.69
2022-10-22T19:57:39.060Z,11.69
2022-10-22T20:07:43.935Z,11.71
2022-10-22T20:17:47.068Z,11.67
2022-10-22T20:27:51.350Z,11.64
2022-10-22T20:37:54.207Z,11.68
2022-10-22T20:48:02.732Z,11.73
2022-10-22T20:58:06.182Z,11.77
2022-10-22T21:08:17.285Z,11.75
2022-10-22T21:18:20.113Z,11.74
2022-10-22T21:28:24.307Z,11.77
2022-10-22T21:38:27.140Z,11.67
2022-10-22T21:48:31.448Z,11.65
2022-10-22T21:58:35.004Z,11.68
2022-10-22T22:08:39.473Z,11.75
2022-10-22T22:18:42.725Z,11.73
2022-10-22T22:28:47.285Z,11.66
2022-10-22T22:38:50.069Z,11.62
2022-10-22T22:48:54.278Z,11.67
2022-10-22T22:58:57.667Z,11.69
2022-10-22T23:09:02.025Z,11.68
2022-10-22T23:19:05.533Z,11.54
2022-10-22T23:29:12.361Z,11.36
2022-10-22T23:39:16.171Z,11.34
2022-10-22T23:49:20.410Z,11.37
2022-10-22T23:59:23.252Z,11.37
